Time;durP1;ratioP1;P1;durP2;ratioP2;P2;SDS_P1;SDS_P2;PMS_P1;PMS_P2;Temp;Humidity;BMP_temperature;BMP_pressure;BME280_temperature;BME280_humidity;BME280_pressure;Samples;Min_cycle;Max_cycle;Signal;HPM_P1;HPM_P2
2022/06/21 00:00:05;;;;;;;4.07;2.00;;;;;;;;;;5000501;28;20217;-59
2022/06/21 00:02:33;;;;;;;5.97;2.10;;;;;;;;;;5001369;28;20209;-59
2022/06/21 00:05:01;;;;;;;3.10;2.30;;;;;;;;;;5000675;28;20690;-59
2022/06/21 00:07:29;;;;;;;3.83;2.17;;;;;;;;;;5000866;28;20693;-59
2022/06/21 00:09:59;;;;;;;3.20;2.43;;;;;;;;;;5000622;28;20272;-59
2022/06/21 00:12:27;;;;;;;2.73;2.10;;;;;;;;;;5000872;28;20212;-59
2022/06/21 00:14:55;;;;;;;3.40;1.77;;;;;;;;;;5000524;28;20232;-59
2022/06/21 00:17:25;;;;;;;2.43;2.20;;;;;;;;;;5013458;28;20239;-59
2022/06/21 00:19:53;;;;;;;6.73;2.80;;;;;;;;;;5000671;28;20240;-59
2022/06/21 00:22:21;;;;;;;2.23;2.03;;;;;;;;;;5000772;28;20265;-59
2022/06/21 00:24:51;;;;;;;3.70;2.40;;;;;;;;;;5020602;28;20718;-59
2022/06/21 00:27:20;;;;;;;3.30;2.37;;;;;;;;;;5000373;28;20215;-59
2022/06/21 00:29:48;;;;;;;3.70;2.57;;;;;;;;;;5000404;28;20271;-59
2022/06/21 00:32:17;;;;;;;2.30;2.13;;;;;;;;;;5000409;28;20245;-59
2022/06/21 00:34:47;;;;;;;2.30;2.20;;;;;;;;;;5003243;28;20250;-60
2022/06/21 00:37:16;;;;;;;2.37;2.20;;;;;;;;;;5000263;28;20242;-60
2022/06/21 00:39:44;;;;;;;3.67;2.10;;;;;;;;;;5000393;28;20208;-59
2022/06/21 00:42:18;;;;;;;4.27;2.47;;;;;;;;;;5000087;28;20235;-60
2022/06/21 00:44:48;;;;;;;3.70;2.40;;;;;;;;;;5003021;28;20777;-59
2022/06/21 00:47:18;;;;;;;2.90;2.40;;;;;;;;;;5000387;28;20242;-59
2022/06/21 00:49:50;;;;;;;3.00;2.07;;;;;;;;;;5000214;28;20256;-59
2022/06/21 00:52:20;;;;;;;3.00;2.80;;;;;;;;;;5007215;28;20206;-59
2022/06/21 00:54:52;;;;;;;3.60;2.33;;;;;;;;;;5019688;28;20621;-59
2022/06/21 00:57:22;;;;;;;2.67;2.47;;;;;;;;;;5019385;28;20238;-59
2022/06/21 00:59:51;;;;;;;2.87;2.00;;;;;;;;;;5019551;28;20217;-59
2022/06/21 01:02:20;;;;;;;3.10;2.13;;;;;;;;;;5019653;28;20213;-59
2022/06/21 01:04:54;;;;;;;2.47;2.20;;;;;;;;;;5019364;28;20233;-59
2022/06/21 01:07:22;;;;;;;3.47;2.07;;;;;;;;;;5019877;28;20244;-59
2022/06/21 01:09:51;;;;;;;3.83;2.60;;;;;;;;;;5019508;28;20267;-59
2022/06/21 01:12:20;;;;;;;2.77;2.33;;;;;;;;;;5019470;28;20214;-59
2022/06/21 01:14:52;;;;;;;5.77;2.97;;;;;;;;;;5019037;28;20233;-59
2022/06/21 01:17:20;;;;;;;2.50;2.30;;;;;;;;;;5019422;28;20245;-59
2022/06/21 01:19:50;;;;;;;5.33;2.30;;;;;;;;;;5012794;28;20205;-60
2022/06/21 01:22:25;;;;;;;9.13;2.53;;;;;;;;;;4999344;28;20208;-59
2022/06/21 01:25:01;;;;;;;3.13;2.63;;;;;;;;;;5018739;28;20616;-59
2022/06/21 01:27:30;;;;;;;2.83;2.50;;;;;;;;;;4998909;28;20248;-59
2022/06/21 01:29:58;;;;;;;5.77;2.70;;;;;;;;;;4999221;28;20606;-59
2022/06/21 01:32:26;;;;;;;2.57;2.27;;;;;;;;;;4999265;28;20236;-59
2022/06/21 01:34:55;;;;;;;4.07;2.30;;;;;;;;;;5001292;28;20226;-59
2022/06/21 01:37:26;;;;;;;2.47;2.20;;;;;;;;;;4999010;28;20278;-59
2022/06/21 01:39:56;;;;;;;2.73;2.50;;;;;;;;;;4999121;28;20554;-59
2022/06/21 01:42:27;;;;;;;5.90;2.37;;;;;;;;;;4998903;28;20575;-59
2022/06/21 01:44:58;;;;;;;3.90;2.40;;;;;;;;;;5001800;28;20318;-60
2022/06/21 01:47:29;;;;;;;4.10;2.40;;;;;;;;;;5005882;28;20552;-60
2022/06/21 01:49:59;;;;;;;2.33;2.20;;;;;;;;;;5018600;28;20737;-59
2022/06/21 01:52:27;;;;;;;4.10;2.80;;;;;;;;;;5018732;28;20237;-59
2022/06/21 01:54:57;;;;;;;2.73;2.30;;;;;;;;;;5018603;28;20230;-59
2022/06/21 01:57:25;;;;;;;2.50;2.30;;;;;;;;;;5018452;28;20250;-59
2022/06/21 01:59:54;;;;;;;4.30;2.57;;;;;;;;;;5018169;28;20210;-60
2022/06/21 02:02:24;;;;;;;6.33;2.40;;;;;;;;;;5018647;28;20210;-59
2022/06/21 02:04:55;;;;;;;4.67;2.97;;;;;;;;;;5018099;28;20232;-59
2022/06/21 02:07:27;;;;;;;3.43;2.20;;;;;;;;;;5018505;28;20207;-59
2022/06/21 02:09:58;;;;;;;2.57;2.37;;;;;;;;;;5018497;28;20289;-60
2022/06/21 02:12:27;;;;;;;2.90;2.50;;;;;;;;;;5018428;28;20269;-59
2022/06/21 02:14:57;;;;;;;5.53;2.87;;;;;;;;;;5018219;28;20246;-60
2022/06/21 02:17:27;;;;;;;5.20;3.10;;;;;;;;;;5017719;28;20735;-59
2022/06/21 02:19:58;;;;;;;2.97;2.63;;;;;;;;;;4998503;28;20206;-59
2022/06/21 02:22:28;;;;;;;3.27;2.37;;;;;;;;;;4998756;28;20226;-60
2022/06/21 02:24:56;;;;;;;4.23;2.67;;;;;;;;;;5018093;28;20232;-59
2022/06/21 02:27:26;;;;;;;4.63;2.60;;;;;;;;;;4998205;28;20557;-59
2022/06/21 02:29:55;;;;;;;2.87;2.40;;;;;;;;;;4998445;28;20240;-59
2022/06/21 02:32:28;;;;;;;3.07;2.63;;;;;;;;;;4998205;28;20742;-59
2022/06/21 02:35:00;;;;;;;3.00;2.47;;;;;;;;;;5000497;28;20231;-59
2022/06/21 02:37:29;;;;;;;2.53;2.33;;;;;;;;;;4998653;28;20239;-60
2022/06/21 02:39:58;;;;;;;3.10;2.33;;;;;;;;;;4997372;28;20690;-60
2022/06/21 02:42:29;;;;;;;13.00;2.70;;;;;;;;;;4998356;28;20227;-59
2022/06/21 02:44:59;;;;;;;3.53;2.50;;;;;;;;;;5000458;28;20229;-59
2022/06/21 02:47:30;;;;;;;2.97;2.43;;;;;;;;;;4998494;28;20271;-59
2022/06/21 02:50:02;;;;;;;2.90;2.40;;;;;;;;;;4998321;28;20229;-59
2022/06/21 02:52:32;;;;;;;2.90;2.40;;;;;;;;;;4998016;28;20213;-59
2022/06/21 02:55:02;;;;;;;3.70;2.20;;;;;;;;;;4998234;28;20264;-59
2022/06/21 02:57:31;;;;;;;3.97;2.33;;;;;;;;;;4997975;28;20275;-59
2022/06/21 03:00:00;;;;;;;5.07;2.47;;;;;;;;;;4998002;28;20238;-60
2022/06/21 03:02:32;;;;;;;3.53;2.40;;;;;;;;;;4997989;28;20668;-60
2022/06/21 03:05:03;;;;;;;3.30;2.17;;;;;;;;;;4998170;28;20352;-59
2022/06/21 03:07:32;;;;;;;6.37;2.80;;;;;;;;;;4998292;28;20255;-60
2022/06/21 03:10:00;;;;;;;3.07;2.40;;;;;;;;;;4997872;28;20237;-59
2022/06/21 03:12:32;;;;;;;3.83;2.43;;;;;;;;;;4997842;28;20210;-60
2022/06/21 03:15:04;;;;;;;4.60;2.77;;;;;;;;;;5004307;28;20643;-59
2022/06/21 03:17:35;;;;;;;4.53;2.70;;;;;;;;;;5016453;28;20211;-59
2022/06/21 03:20:07;;;;;;;6.30;2.60;;;;;;;;;;4998076;28;20212;-60
2022/06/21 03:22:35;;;;;;;3.87;3.17;;;;;;;;;;4998122;28;20256;-60
2022/06/21 03:25:05;;;;;;;2.57;2.10;;;;;;;;;;5017687;28;20264;-59
2022/06/21 03:27:35;;;;;;;6.27;2.70;;;;;;;;;;4997575;28;20255;-59
2022/06/21 03:30:04;;;;;;;5.87;2.60;;;;;;;;;;4997592;28;20258;-60
2022/06/21 03:32:35;;;;;;;3.27;2.40;;;;;;;;;;4997501;28;20213;-59
2022/06/21 03:35:03;;;;;;;4.50;2.77;;;;;;;;;;4999739;28;20234;-59
2022/06/21 03:37:34;;;;;;;3.83;2.60;;;;;;;;;;4997537;28;20215;-59
2022/06/21 03:42:49;;;;;;;3.77;2.70;;;;;;;;;;5007013;28;20211;-59
2022/06/21 03:45:20;;;;;;;3.03;2.70;;;;;;;;;;5000771;28;20641;-59
2022/06/21 03:47:51;;;;;;;3.70;2.63;;;;;;;;;;4997739;28;20209;-59
2022/06/21 03:50:21;;;;;;;2.50;2.30;;;;;;;;;;4997661;28;20235;-59
2022/06/21 03:52:54;;;;;;;4.60;2.63;;;;;;;;;;5001302;28;20252;-59
2022/06/21 03:55:27;;;;;;;3.00;2.70;;;;;;;;;;5001411;28;20247;-60
2022/06/21 03:57:59;;;;;;;4.60;2.43;;;;;;;;;;5000937;28;20240;-60
2022/06/21 04:00:29;;;;;;;5.73;2.60;;;;;;;;;;5000632;28;20205;-59
2022/06/21 04:03:00;;;;;;;5.77;2.70;;;;;;;;;;5001122;28;20245;-60
2022/06/21 04:05:30;;;;;;;3.27;2.47;;;;;;;;;;5000873;28;20238;-59
2022/06/21 04:08:06;;;;;;;2.67;2.30;;;;;;;;;;5000763;28;20237;-59
2022/06/21 04:10:39;;;;;;;5.73;2.67;;;;;;;;;;5000508;28;20667;-60
2022/06/21 04:13:11;;;;;;;5.33;2.73;;;;;;;;;;5000584;28;20229;-59
2022/06/21 04:15:44;;;;;;;5.33;2.70;;;;;;;;;;5000519;28;20585;-59
2022/06/21 04:18:15;;;;;;;5.60;3.10;;;;;;;;;;5000746;28;20215;-59
2022/06/21 04:20:45;;;;;;;7.53;2.73;;;;;;;;;;5000501;28;20258;-59
2022/06/21 04:23:18;;;;;;;3.43;2.60;;;;;;;;;;5010341;28;20262;-59
2022/06/21 04:25:50;;;;;;;6.57;2.63;;;;;;;;;;5010049;28;20258;-60
2022/06/21 04:28:20;;;;;;;2.60;2.30;;;;;;;;;;5000422;28;20276;-60
2022/06/21 04:30:52;;;;;;;6.07;2.37;;;;;;;;;;5000271;28;20262;-59
2022/06/21 04:33:24;;;;;;;4.30;2.57;;;;;;;;;;5000554;28;20258;-59
2022/06/21 04:35:54;;;;;;;3.57;2.20;;;;;;;;;;5002950;28;20217;-59
2022/06/21 04:38:26;;;;;;;3.00;2.70;;;;;;;;;;5000681;28;20293;-59
2022/06/21 04:40:58;;;;;;;4.47;2.70;;;;;;;;;;5000458;28;20242;-60
2022/06/21 04:43:29;;;;;;;5.57;2.90;;;;;;;;;;5003960;28;20230;-59
2022/06/21 04:45:59;;;;;;;5.90;2.37;;;;;;;;;;5012228;28;20581;-59
2022/06/21 04:48:31;;;;;;;4.50;2.40;;;;;;;;;;5000212;28;20297;-59
2022/06/21 04:51:01;;;;;;;2.80;2.50;;;;;;;;;;4999936;28;20715;-59
2022/06/21 04:53:35;;;;;;;4.07;2.50;;;;;;;;;;5000331;28;20265;-59
2022/06/21 04:56:07;;;;;;;3.10;2.20;;;;;;;;;;4999937;28;20233;-60
2022/06/21 04:58:35;;;;;;;9.60;3.07;;;;;;;;;;5000161;28;20207;-59
2022/06/21 05:01:29;;;;;;;4.60;2.70;;;;;;;;;;4999492;28;20719;-59
2022/06/21 05:03:53;;;;;;;4.50;2.67;;;;;;;;;;5006431;28;20238;-59
2022/06/21 05:06:21;;;;;;;3.80;2.33;;;;;;;;;;5019512;28;20214;-59
2022/06/21 05:08:51;;;;;;;3.67;2.63;;;;;;;;;;5019567;28;20239;-59
2022/06/21 05:11:20;;;;;;;3.57;2.70;;;;;;;;;;5019070;28;20282;-59
2022/06/21 05:13:49;;;;;;;2.70;2.47;;;;;;;;;;5019206;28;20637;-59
2022/06/21 05:16:20;;;;;;;2.87;2.60;;;;;;;;;;5019080;28;20205;-59
2022/06/21 05:18:51;;;;;;;3.50;2.70;;;;;;;;;;5007536;28;20579;-59
2022/06/21 05:21:30;;;;;;;4.63;2.90;;;;;;;;;;4999789;28;20208;-59
2022/06/21 05:23:59;;;;;;;2.50;2.27;;;;;;;;;;5019892;28;20301;-59
2022/06/21 05:26:30;;;;;;;4.17;2.60;;;;;;;;;;4999733;28;20657;-59
2022/06/21 05:29:00;;;;;;;4.87;2.67;;;;;;;;;;5009689;28;20200;-59
2022/06/21 05:31:30;;;;;;;4.87;3.43;;;;;;;;;;5003685;28;20231;-59
2022/06/21 05:34:00;;;;;;;3.10;2.50;;;;;;;;;;5004712;28;20222;-59
2022/06/21 05:36:31;;;;;;;7.23;3.07;;;;;;;;;;5011143;28;20736;-59
2022/06/21 05:39:02;;;;;;;5.33;2.90;;;;;;;;;;5005672;28;20352;-59
2022/06/21 05:41:32;;;;;;;5.47;2.87;;;;;;;;;;5005050;28;20261;-59
2022/06/21 05:44:02;;;;;;;3.33;2.87;;;;;;;;;;5007579;28;20740;-59
2022/06/21 05:46:32;;;;;;;3.77;2.60;;;;;;;;;;5006499;28;20232;-59
2022/06/21 05:49:08;;;;;;;5.93;3.03;;;;;;;;;;5011655;28;20262;-59
2022/06/21 05:51:36;;;;;;;6.37;3.07;;;;;;;;;;4999009;28;20250;-59
2022/06/21 05:54:09;;;;;;;6.40;2.47;;;;;;;;;;4998811;28;20262;-59
2022/06/21 05:56:37;;;;;;;6.07;3.00;;;;;;;;;;4998878;28;20241;-59
2022/06/21 05:59:06;;;;;;;4.40;2.83;;;;;;;;;;4999101;28;20247;-59
2022/06/21 06:01:38;;;;;;;5.53;3.23;;;;;;;;;;4998389;28;20738;-59
2022/06/21 06:04:10;;;;;;;5.00;3.17;;;;;;;;;;4998688;28;20732;-59
2022/06/21 06:06:39;;;;;;;5.03;3.10;;;;;;;;;;4998920;28;20244;-59
2022/06/21 06:09:11;;;;;;;6.57;3.00;;;;;;;;;;4998893;28;20237;-59
2022/06/21 06:12:00;;;;;;;10.13;3.30;;;;;;;;;;4998536;28;20712;-59
2022/06/21 06:14:32;;;;;;;12.17;4.40;;;;;;;;;;4998130;28;20229;-59
2022/06/21 06:17:02;;;;;;;5.97;3.23;;;;;;;;;;5008645;28;20570;-59
2022/06/21 06:19:32;;;;;;;4.33;3.47;;;;;;;;;;5000729;28;20671;-59
2022/06/21 06:22:11;;;;;;;6.57;3.30;;;;;;;;;;4998502;28;20634;-59
2022/06/21 06:24:43;;;;;;;3.93;3.03;;;;;;;;;;5017615;28;20603;-59
2022/06/21 06:27:28;;;;;;;8.30;2.80;;;;;;;;;;4998363;28;20221;-59
2022/06/21 06:30:00;;;;;;;6.13;3.30;;;;;;;;;;4998254;28;20215;-59
2022/06/21 06:32:32;;;;;;;8.37;2.97;;;;;;;;;;4998469;28;20227;-59
2022/06/21 06:35:00;;;;;;;4.80;3.47;;;;;;;;;;4999149;28;20591;-59
2022/06/21 06:37:31;;;;;;;5.77;2.93;;;;;;;;;;4998226;28;20209;-59
2022/06/21 06:40:02;;;;;;;7.40;3.40;;;;;;;;;;4998162;28;20275;-59
2022/06/21 06:42:30;;;;;;;7.40;3.50;;;;;;;;;;5004747;28;20205;-60
2022/06/21 06:45:02;;;;;;;6.10;3.37;;;;;;;;;;5003773;28;20238;-59
2022/06/21 06:47:34;;;;;;;5.67;3.10;;;;;;;;;;4998307;28;20212;-60
2022/06/21 06:50:05;;;;;;;8.53;3.20;;;;;;;;;;4997886;28;20245;-60
2022/06/21 06:52:35;;;;;;;4.67;3.17;;;;;;;;;;4997908;28;20266;-60
2022/06/21 06:55:08;;;;;;;6.63;3.57;;;;;;;;;;4997776;28;20231;-59
2022/06/21 06:57:38;;;;;;;5.30;2.80;;;;;;;;;;4997886;28;20242;-59
2022/06/21 07:00:11;;;;;;;6.83;3.00;;;;;;;;;;4997680;28;20272;-60
2022/06/21 07:02:45;;;;;;;10.77;3.30;;;;;;;;;;4997819;28;20568;-59
2022/06/21 07:05:15;;;;;;;8.27;3.47;;;;;;;;;;5004820;28;20211;-59
2022/06/21 07:07:45;;;;;;;6.20;3.10;;;;;;;;;;5017806;28;20209;-59
2022/06/21 07:10:17;;;;;;;4.73;3.00;;;;;;;;;;5017460;28;20651;-60
2022/06/21 07:12:45;;;;;;;9.53;3.27;;;;;;;;;;5017388;28;20693;-60
2022/06/21 07:15:14;;;;;;;9.50;3.27;;;;;;;;;;5017556;28;20208;-60
2022/06/21 07:17:47;;;;;;;3.80;2.38;;;;;;;;;;5015094;28;20264;-60
2022/06/21 07:20:19;;;;;;;5.97;3.17;;;;;;;;;;4997957;28;20208;-59
2022/06/21 07:22:47;;;;;;;6.13;3.03;;;;;;;;;;5000044;28;20207;-59
2022/06/21 07:25:22;;;;;;;4.50;3.23;;;;;;;;;;5013101;28;20224;-60
2022/06/21 07:27:53;;;;;;;9.47;2.97;;;;;;;;;;5001642;28;20205;-60
2022/06/21 07:30:23;;;;;;;9.30;3.20;;;;;;;;;;5001644;28;20255;-59
2022/06/21 07:32:54;;;;;;;8.77;3.40;;;;;;;;;;5008770;28;20308;-59
2022/06/21 07:35:24;;;;;;;7.30;3.53;;;;;;;;;;5008141;28;20666;-59
2022/06/21 07:37:54;;;;;;;5.65;3.17;;;;;;;;;;5001471;28;20215;-59
2022/06/21 07:40:26;;;;;;;7.20;4.30;;;;;;;;;;5001516;28;20296;-60
2022/06/21 07:42:58;;;;;;;5.95;3.08;;;;;;;;;;5001617;28;20239;-59
2022/06/21 07:45:29;;;;;;;5.40;3.45;;;;;;;;;;5001192;28;20209;-59
2022/06/21 07:48:00;;;;;;;8.60;3.45;;;;;;;;;;5001611;28;20204;-59
2022/06/21 07:50:34;;;;;;;8.00;4.63;;;;;;;;;;5001501;28;20289;-59
2022/06/21 07:53:09;;;;;;;6.88;3.33;;;;;;;;;;5001195;28;20241;-60
2022/06/21 07:55:39;;;;;;;6.75;3.47;;;;;;;;;;5001297;28;20216;-60
2022/06/21 07:58:11;;;;;;;10.65;3.70;;;;;;;;;;5000784;28;20240;-59
2022/06/21 08:09:06;;;;;;;7.93;3.88;;;;;;;;;;5000768;28;20313;-59
2022/06/21 08:11:38;;;;;;;6.70;3.80;;;;;;;;;;5000651;28;20681;-59
2022/06/21 08:14:06;;;;;;;9.40;3.50;;;;;;;;;;5000830;28;20235;-59
2022/06/21 08:16:35;;;;;;;7.03;3.67;;;;;;;;;;5007131;28;20269;-59
2022/06/21 08:19:13;;;;;;;9.07;3.93;;;;;;;;;;5005413;28;20210;-59
2022/06/21 08:21:45;;;;;;;3.43;2.90;;;;;;;;;;5000677;28;20581;-59
2022/06/21 08:24:17;;;;;;;11.23;3.43;;;;;;;;;;5020045;28;20278;-60
2022/06/21 08:26:50;;;;;;;6.38;3.05;;;;;;;;;;5000157;28;20272;-60
2022/06/21 08:29:22;;;;;;;7.63;3.13;;;;;;;;;;5000153;28;20214;-60
2022/06/21 08:31:54;;;;;;;4.97;4.03;;;;;;;;;;5000823;28;20248;-60
2022/06/21 08:34:24;;;;;;;7.57;3.20;;;;;;;;;;5001617;28;20290;-60
2022/06/21 08:36:55;;;;;;;4.22;3.20;;;;;;;;;;5000133;28;20291;-59
2022/06/21 08:39:25;;;;;;;5.38;2.92;;;;;;;;;;4999707;28;20242;-59
2022/06/21 08:42:11;;;;;;;11.83;3.40;;;;;;;;;;5000287;28;20213;-59
2022/06/21 08:45:40;;;;;;;6.37;2.90;;;;;;;;;;5002560;28;20261;-59
2022/06/21 08:47:59;;;;;;;10.50;3.40;;;;;;;;;;5009644;28;20264;-60
2022/06/21 08:50:40;;;;;;;11.23;3.63;;;;;;;;;;5018292;28;20208;-60
2022/06/21 08:53:14;;;;;;;9.65;3.20;;;;;;;;;;5019620;28;20240;-60
2022/06/21 08:55:48;;;;;;;9.00;3.40;;;;;;;;;;5019779;28;20325;-59
2022/06/21 08:58:25;;;;;;;6.93;2.95;;;;;;;;;;5019389;28;20259;-59
2022/06/21 09:00:57;;;;;;;7.10;3.42;;;;;;;;;;5019493;28;20704;-60
2022/06/21 09:03:37;;;;;;;11.45;3.22;;;;;;;;;;5019642;28;20292;-60
2022/06/21 09:06:13;;;;;;;7.70;3.55;;;;;;;;;;5019456;28;20234;-60
2022/06/21 09:09:01;;;;;;;7.47;3.58;;;;;;;;;;5019398;28;20231;-60
2022/06/21 09:11:32;;;;;;;5.63;3.25;;;;;;;;;;5016013;28;20293;-60
2022/06/21 09:14:08;;;;;;;8.00;3.85;;;;;;;;;;5019379;28;20274;-60
2022/06/21 09:16:43;;;;;;;9.55;3.40;;;;;;;;;;5018997;28;20249;-59
2022/06/21 09:19:16;;;;;;;7.88;3.75;;;;;;;;;;5004215;28;20243;-59
2022/06/21 09:21:53;;;;;;;9.07;3.58;;;;;;;;;;4999528;28;20213;-60
2022/06/21 09:24:28;;;;;;;9.88;3.47;;;;;;;;;;5018997;28;20229;-60
2022/06/21 09:26:59;;;;;;;6.47;3.95;;;;;;;;;;4999297;28;20212;-59
2022/06/21 09:29:29;;;;;;;6.10;4.20;;;;;;;;;;4999281;28;20215;-60
2022/06/21 09:32:11;;;;;;;5.35;3.60;;;;;;;;;;4999130;28;20250;-60
2022/06/21 09:34:43;;;;;;;11.35;3.90;;;;;;;;;;5000332;28;20238;-60
2022/06/21 09:37:19;;;;;;;7.78;3.42;;;;;;;;;;4999383;28;20208;-60
2022/06/21 09:39:51;;;;;;;10.90;4.03;;;;;;;;;;4999595;28;20208;-60
2022/06/21 09:42:24;;;;;;;10.48;4.18;;;;;;;;;;4999134;28;20220;-60
2022/06/21 09:44:57;;;;;;;5.72;3.13;;;;;;;;;;5001097;28;20225;-59
2022/06/21 09:47:31;;;;;;;8.82;3.70;;;;;;;;;;5006768;28;20227;-59
2022/06/21 09:50:03;;;;;;;8.00;3.70;;;;;;;;;;5018590;28;20239;-60
2022/06/21 09:52:36;;;;;;;9.68;5.15;;;;;;;;;;5018748;28;20296;-60
2022/06/21 09:55:16;;;;;;;10.98;6.05;;;;;;;;;;5018544;28;20687;-60
2022/06/21 09:57:48;;;;;;;9.30;3.50;;;;;;;;;;5018445;28;20270;-59
2022/06/21 10:00:19;;;;;;;6.65;3.85;;;;;;;;;;5018094;28;20686;-60
2022/06/21 10:03:00;;;;;;;10.88;3.40;;;;;;;;;;5018536;28;20207;-59
2022/06/21 10:05:33;;;;;;;7.15;4.32;;;;;;;;;;5018664;28;20212;-60
2022/06/21 10:08:07;;;;;;;7.53;3.88;;;;;;;;;;5018612;28;20204;-60
2022/06/21 10:10:41;;;;;;;10.32;3.58;;;;;;;;;;5018307;28;20239;-60
2022/06/21 10:13:13;;;;;;;10.30;3.40;;;;;;;;;;5018043;28;20641;-60
2022/06/21 10:15:47;;;;;;;8.25;3.40;;;;;;;;;;5017849;28;20295;-60
2022/06/21 10:18:34;;;;;;;9.40;3.17;;;;;;;;;;4998615;28;20675;-60
2022/06/21 10:21:11;;;;;;;9.05;3.55;;;;;;;;;;4998653;28;20205;-59
2022/06/21 10:23:48;;;;;;;12.20;3.55;;;;;;;;;;5014913;28;20230;-60
2022/06/21 10:26:24;;;;;;;10.55;3.28;;;;;;;;;;4998483;28;20236;-60
2022/06/21 10:28:58;;;;;;;8.20;3.72;;;;;;;;;;4998236;28;20215;-60
2022/06/21 10:31:43;;;;;;;8.10;3.70;;;;;;;;;;4997950;28;20212;-60
2022/06/21 10:34:24;;;;;;;6.93;3.40;;;;;;;;;;4999634;28;20228;-60
2022/06/21 10:37:02;;;;;;;8.07;3.35;;;;;;;;;;4997970;28;20260;-60
2022/06/21 10:39:39;;;;;;;8.52;3.83;;;;;;;;;;4998219;28;20255;-60
2022/06/21 10:45:12;;;;;;;11.90;3.60;;;;;;;;;;5000366;28;20256;-60
2022/06/21 10:47:49;;;;;;;10.20;3.63;;;;;;;;;;4998100;28;20608;-60
2022/06/21 10:50:22;;;;;;;8.48;3.75;;;;;;;;;;4998375;28;20204;-60
2022/06/21 10:53:13;;;;;;;8.48;4.05;;;;;;;;;;4997983;28;20228;-60
2022/06/21 10:55:48;;;;;;;11.85;3.53;;;;;;;;;;5006565;28;20235;-60
2022/06/21 10:58:27;;;;;;;10.32;3.65;;;;;;;;;;5017394;28;20618;-60
2022/06/21 11:01:17;;;;;;;14.30;3.20;;;;;;;;;;5018208;28;20604;-60
2022/06/21 11:04:03;;;;;;;8.52;3.33;;;;;;;;;;5021870;28;20223;-60
2022/06/21 11:06:35;;;;;;;8.90;3.53;;;;;;;;;;5021463;28;20243;-60
2022/06/21 11:09:17;;;;;;;11.35;3.35;;;;;;;;;;5021571;28;20616;-60
2022/06/21 11:11:48;;;;;;;11.32;3.25;;;;;;;;;;5021688;28;20239;-60
2022/06/21 11:14:21;;;;;;;18.45;3.60;;;;;;;;;;5021338;28;20236;-60
2022/06/21 11:16:58;;;;;;;10.63;3.45;;;;;;;;;;5021618;28;20200;-60
2022/06/21 11:19:39;;;;;;;8.70;3.30;;;;;;;;;;5021334;28;20219;-60
2022/06/21 11:22:16;;;;;;;7.82;3.28;;;;;;;;;;5021706;28;20208;-60
2022/06/21 11:24:51;;;;;;;10.20;3.22;;;;;;;;;;5024244;28;20275;-60
2022/06/21 11:27:22;;;;;;;15.07;3.50;;;;;;;;;;5001622;28;20232;-60
2022/06/21 11:29:53;;;;;;;13.02;3.97;;;;;;;;;;5001598;28;20244;-60
2022/06/21 11:32:24;;;;;;;8.15;3.97;;;;;;;;;;5001694;28;20232;-60
2022/06/21 11:34:57;;;;;;;11.68;3.60;;;;;;;;;;5002814;28;20590;-60
2022/06/21 11:37:31;;;;;;;6.88;3.45;;;;;;;;;;5001404;28;20236;-60
2022/06/21 11:40:06;;;;;;;7.28;3.17;;;;;;;;;;5001720;28;20303;-59
2022/06/21 11:42:36;;;;;;;18.42;4.32;;;;;;;;;;5008256;28;20241;-60
2022/06/21 11:45:15;;;;;;;10.80;3.75;;;;;;;;;;5006503;28;20240;-60
2022/06/21 11:47:50;;;;;;;8.63;4.07;;;;;;;;;;5001748;28;20213;-60
2022/06/21 11:50:19;;;;;;;10.68;3.65;;;;;;;;;;5001161;28;20545;-60
2022/06/21 11:53:00;;;;;;;11.95;4.30;;;;;;;;;;5000836;28;20250;-60
2022/06/21 11:55:33;;;;;;;5.70;4.28;;;;;;;;;;5007640;28;20659;-60
2022/06/21 11:58:04;;;;;;;13.27;4.15;;;;;;;;;;5020411;28;20272;-60
2022/06/21 12:00:35;;;;;;;10.73;3.55;;;;;;;;;;5020530;28;20243;-60
2022/06/21 12:03:04;;;;;;;10.73;3.67;;;;;;;;;;5020529;28;20301;-60
2022/06/21 12:05:37;;;;;;;10.43;3.42;;;;;;;;;;5020595;28;20203;-60
2022/06/21 12:08:09;;;;;;;15.30;4.13;;;;;;;;;;5020450;28;20207;-60
2022/06/21 12:10:45;;;;;;;11.57;3.55;;;;;;;;;;5020441;28;20682;-60
2022/06/21 12:13:18;;;;;;;9.85;3.40;;;;;;;;;;5019933;28;20227;-60
2022/06/21 12:15:53;;;;;;;12.98;4.32;;;;;;;;;;5020049;28;20259;-60
2022/06/21 12:18:23;;;;;;;12.57;3.42;;;;;;;;;;5012744;28;20262;-59
2022/06/21 12:20:52;;;;;;;7.38;3.70;;;;;;;;;;5001057;28;20208;-60
2022/06/21 12:23:24;;;;;;;9.05;3.40;;;;;;;;;;5011808;28;20263;-60
2022/06/21 12:25:54;;;;;;;15.50;3.55;;;;;;;;;;5007561;28;20239;-60
2022/06/21 12:28:23;;;;;;;14.15;4.20;;;;;;;;;;5000474;28;20263;-60
2022/06/21 12:31:01;;;;;;;11.38;4.35;;;;;;;;;;5000224;28;20212;-60
2022/06/21 12:33:33;;;;;;;7.07;3.53;;;;;;;;;;5000571;28;20237;-60
2022/06/21 12:36:22;;;;;;;9.02;3.65;;;;;;;;;;5000448;28;20228;-59
2022/06/21 12:38:52;;;;;;;11.73;3.90;;;;;;;;;;5000133;28;20756;-60
2022/06/21 12:41:27;;;;;;;7.50;3.72;;;;;;;;;;5000122;28;20221;-60
2022/06/21 12:44:00;;;;;;;13.85;3.63;;;;;;;;;;5003197;28;20594;-60
2022/06/21 12:46:32;;;;;;;11.45;3.42;;;;;;;;;;5000576;28;20239;-60
2022/06/21 12:49:21;;;;;;;15.65;4.70;;;;;;;;;;5000280;28;20208;-60
2022/06/21 12:51:53;;;;;;;8.32;3.05;;;;;;;;;;4997117;28;20271;-60
2022/06/21 12:54:33;;;;;;;9.93;3.30;;;;;;;;;;4999988;28;20816;-60
2022/06/21 12:57:11;;;;;;;10.68;3.53;;;;;;;;;;4999620;28;20240;-60
2022/06/21 12:59:53;;;;;;;10.95;3.95;;;;;;;;;;4999805;28;20212;-60
2022/06/21 13:02:32;;;;;;;9.38;4.30;;;;;;;;;;4999831;28;20224;-60
2022/06/21 13:05:12;;;;;;;10.52;3.30;;;;;;;;;;4999889;28;20276;-60
2022/06/21 13:07:47;;;;;;;16.67;3.75;;;;;;;;;;5000164;28;20208;-60
2022/06/21 13:10:26;;;;;;;8.93;3.35;;;;;;;;;;4999625;28;20215;-60
2022/06/21 13:13:00;;;;;;;11.20;3.70;;;;;;;;;;4999720;28;20213;-60
2022/06/21 13:15:41;;;;;;;11.80;3.67;;;;;;;;;;4999823;28;20315;-60
2022/06/21 13:18:27;;;;;;;11.20;3.65;;;;;;;;;;5012910;28;20616;-60
2022/06/21 13:21:00;;;;;;;12.68;4.78;;;;;;;;;;4999426;28;20208;-60
2022/06/21 13:23:32;;;;;;;7.50;3.72;;;;;;;;;;5012035;28;20228;-60
2022/06/21 13:26:03;;;;;;;7.40;3.53;;;;;;;;;;5003378;28;20707;-60
2022/06/21 13:28:44;;;;;;;10.32;3.80;;;;;;;;;;4999530;28;20656;-60
2022/06/21 13:31:16;;;;;;;7.68;3.42;;;;;;;;;;5006501;28;20300;-60
2022/06/21 13:33:57;;;;;;;11.00;3.63;;;;;;;;;;5018423;28;20283;-60
2022/06/21 13:36:27;;;;;;;12.50;3.70;;;;;;;;;;4999221;28;20596;-60
2022/06/21 13:38:58;;;;;;;9.55;3.78;;;;;;;;;;4999080;28;20648;-59
2022/06/21 13:44:19;;;;;;;10.00;3.58;;;;;;;;;;5000845;28;20232;-59
2022/06/21 13:46:49;;;;;;;5.70;3.42;;;;;;;;;;4999161;28;20209;-59
2022/06/21 13:49:21;;;;;;;5.78;3.10;;;;;;;;;;4999068;28;20244;-59
2022/06/21 13:51:53;;;;;;;4.90;3.50;;;;;;;;;;4999308;28;20236;-59
2022/06/21 13:54:23;;;;;;;9.60;3.58;;;;;;;;;;4999200;28;20228;-59
2022/06/21 13:56:56;;;;;;;13.43;3.20;;;;;;;;;;4998627;28;20237;-59
2022/06/21 13:59:28;;;;;;;7.68;3.97;;;;;;;;;;4998695;28;20710;-59
2022/06/21 14:01:58;;;;;;;9.55;3.70;;;;;;;;;;5005922;28;20612;-60
2022/06/21 14:04:30;;;;;;;8.10;3.15;;;;;;;;;;5018177;28;20258;-58
2022/06/21 14:07:02;;;;;;;7.43;3.58;;;;;;;;;;5018406;28;20203;-60
2022/06/21 14:09:33;;;;;;;4.93;4.28;;;;;;;;;;5018182;28;20239;-59
2022/06/21 14:12:05;;;;;;;12.95;4.25;;;;;;;;;;5018295;28;20211;-60
2022/06/21 14:14:40;;;;;;;11.07;4.00;;;;;;;;;;5017997;28;20589;-60
2022/06/21 14:17:13;;;;;;;12.63;4.07;;;;;;;;;;5018103;28;20227;-60
2022/06/21 14:19:44;;;;;;;14.23;3.83;;;;;;;;;;4999199;28;20212;-60
2022/06/21 14:22:15;;;;;;;8.68;3.67;;;;;;;;;;4998564;28;20231;-60
2022/06/21 14:24:49;;;;;;;10.38;3.67;;;;;;;;;;5032394;28;20306;-60
2022/06/21 14:27:18;;;;;;;18.85;4.10;;;;;;;;;;5008617;28;20205;-60
2022/06/21 14:29:52;;;;;;;12.27;3.75;;;;;;;;;;4998269;28;20239;-59
2022/06/21 14:32:21;;;;;;;13.10;3.78;;;;;;;;;;4998142;28;20663;-59
2022/06/21 14:34:52;;;;;;;10.18;3.60;;;;;;;;;;5000397;28;20225;-60
2022/06/21 14:37:23;;;;;;;14.63;4.10;;;;;;;;;;4998189;28;20703;-60
2022/06/21 14:40:14;;;;;;;12.70;3.25;;;;;;;;;;4997766;28;20303;-60
2022/06/21 14:42:45;;;;;;;12.27;3.65;;;;;;;;;;4998324;28;20300;-60
2022/06/21 14:45:16;;;;;;;14.55;3.40;;;;;;;;;;5000695;28;20209;-60
2022/06/21 14:47:49;;;;;;;12.25;4.50;;;;;;;;;;4998146;28;20240;-60
2022/06/21 14:50:21;;;;;;;11.32;4.13;;;;;;;;;;4997979;28;20680;-60
2022/06/21 14:53:05;;;;;;;15.77;3.70;;;;;;;;;;4998199;28;20299;-60
2022/06/21 14:55:40;;;;;;;11.38;3.42;;;;;;;;;;5004667;28;20568;-60
2022/06/21 14:58:37;;;;;;;9.35;2.70;;;;;;;;;;5017821;28;20298;-60
2022/06/21 15:01:12;;;;;;;15.23;4.28;;;;;;;;;;5017376;28;20659;-60
2022/06/21 15:03:43;;;;;;;7.53;3.10;;;;;;;;;;5017369;28;20285;-60
2022/06/21 15:06:15;;;;;;;13.20;4.25;;;;;;;;;;5017453;28;20200;-60
2022/06/21 15:08:47;;;;;;;8.73;3.47;;;;;;;;;;5017817;28;20242;-60
2022/06/21 15:11:19;;;;;;;12.80;3.40;;;;;;;;;;5017537;28;20239;-60
2022/06/21 15:13:54;;;;;;;10.88;4.47;;;;;;;;;;5017459;28;20228;-60
2022/06/21 15:16:24;;;;;;;10.43;3.67;;;;;;;;;;5017218;28;20265;-60
2022/06/21 15:18:56;;;;;;;11.43;3.55;;;;;;;;;;5005350;28;20702;-60
2022/06/21 15:21:27;;;;;;;10.85;3.13;;;;;;;;;;4997296;28;20279;-60
2022/06/21 15:23:59;;;;;;;12.77;4.05;;;;;;;;;;5017943;28;20289;-60
2022/06/21 15:26:29;;;;;;;11.70;3.22;;;;;;;;;;4997748;28;20212;-60
2022/06/21 15:29:05;;;;;;;10.60;3.72;;;;;;;;;;4997231;28;20212;-60